VMMC/MFM METAR and TAF weather

Enter ICAO airport designator
Station Type Date Time Source
VMMC METAR 2019/06/18 15:00 UTC NOAA

VMMC 181500Z 14006KT 9999 FEW015 28/27 Q1008 NOSIG


Station Type Date Time Source
VMMC Decoded METAR 2019/06/18 15:00 UTC NOAA

Taipa, Macau (VMMC) 22-10N 113-34E
Jun 18, 2019 - 11:00 AM EDT / 2019.06.18 1500 UTC
Wind: from the SE (140 degrees) at 7 MPH (6 KT):0
Visibility: greater than 7 mile(s):0
Sky conditions: mostly clear
Temperature: 82 F (28 C)
Dew Point: 80 F (27 C)
Relative Humidity: 94%
Pressure (altimeter): 29.77 in. Hg (1008 hPa)
ob: VMMC 181500Z 14006KT 9999 FEW015 28/27 Q1008 NOSIG
cycle: 15

Station Type Date Time Source
VMMC TAF 2019/06/18 12:21 UTC NOAA

TAF VMMC 181100Z 1812/1918 16008KT 9999 FEW015 SCT030
TEMPO 1821/1903 4500 SHRA FEW010CB SCT020

Example: see airport list